sensor_id;sensor_type;location;lat;lon;timestamp;P1;durP1;ratioP1;P2;durP2;ratioP2
55800;SDS011;41730;51.960;20.158;2023-10-08T00:01:18;6.70;;;1.80;;
55800;SDS011;41730;51.960;20.158;2023-10-08T00:03:50;6.00;;;1.60;;
55800;SDS011;41730;51.960;20.158;2023-10-08T00:06:27;6.40;;;1.90;;
55800;SDS011;41730;51.960;20.158;2023-10-08T00:08:58;4.40;;;1.80;;
55800;SDS011;41730;51.960;20.158;2023-10-08T00:11:35;8.60;;;2.10;;
55800;SDS011;41730;51.960;20.158;2023-10-08T00:14:08;8.10;;;2.10;;
55800;SDS011;41730;51.960;20.158;2023-10-08T00:16:49;8.00;;;2.00;;
55800;SDS011;41730;51.960;20.158;2023-10-08T00:19:21;6.20;;;2.20;;
55800;SDS011;41730;51.960;20.158;2023-10-08T00:21:52;7.10;;;2.00;;
55800;SDS011;41730;51.960;20.158;2023-10-08T00:24:33;7.40;;;2.00;;
55800;SDS011;41730;51.960;20.158;2023-10-08T00:27:10;8.20;;;2.30;;
55800;SDS011;41730;51.960;20.158;2023-10-08T00:29:43;11.20;;;2.20;;
55800;SDS011;41730;51.960;20.158;2023-10-08T00:32:15;6.50;;;2.00;;
55800;SDS011;41730;51.960;20.158;2023-10-08T00:34:47;7.30;;;2.00;;
55800;SDS011;41730;51.960;20.158;2023-10-08T00:37:19;7.10;;;2.00;;
55800;SDS011;41730;51.960;20.158;2023-10-08T00:39:55;4.90;;;1.80;;
55800;SDS011;41730;51.960;20.158;2023-10-08T00:42:27;6.10;;;1.80;;
55800;SDS011;41730;51.960;20.158;2023-10-08T00:45:00;6.60;;;1.90;;
55800;SDS011;41730;51.960;20.158;2023-10-08T00:50:12;6.60;;;1.90;;
55800;SDS011;41730;51.960;20.158;2023-10-08T00:52:48;5.60;;;2.10;;
55800;SDS011;41730;51.960;20.158;2023-10-08T00:55:29;7.40;;;1.70;;
55800;SDS011;41730;51.960;20.158;2023-10-08T00:58:03;7.50;;;2.40;;
55800;SDS011;41730;51.960;20.158;2023-10-08T01:00:40;5.80;;;1.80;;
55800;SDS011;41730;51.960;20.158;2023-10-08T01:03:15;7.60;;;2.20;;
55800;SDS011;41730;51.960;20.158;2023-10-08T01:05:48;6.90;;;2.30;;
55800;SDS011;41730;51.960;20.158;2023-10-08T01:08:20;7.90;;;2.60;;
55800;SDS011;41730;51.960;20.158;2023-10-08T01:13:50;9.20;;;2.70;;
55800;SDS011;41730;51.960;20.158;2023-10-08T01:16:24;7.60;;;2.00;;
55800;SDS011;41730;51.960;20.158;2023-10-08T01:19:25;4.90;;;1.80;;
55800;SDS011;41730;51.960;20.158;2023-10-08T01:21:57;6.70;;;2.10;;
55800;SDS011;41730;51.960;20.158;2023-10-08T01:24:35;8.80;;;2.00;;
55800;SDS011;41730;51.960;20.158;2023-10-08T01:27:06;6.30;;;2.40;;
55800;SDS011;41730;51.960;20.158;2023-10-08T01:29:40;4.60;;;2.30;;
55800;SDS011;41730;51.960;20.158;2023-10-08T01:32:13;5.70;;;2.00;;
55800;SDS011;41730;51.960;20.158;2023-10-08T01:34:45;4.50;;;1.90;;
55800;SDS011;41730;51.960;20.158;2023-10-08T01:37:17;5.00;;;2.00;;
55800;SDS011;41730;51.960;20.158;2023-10-08T01:39:50;4.80;;;1.90;;
55800;SDS011;41730;51.960;20.158;2023-10-08T01:42:21;6.30;;;2.30;;
55800;SDS011;41730;51.960;20.158;2023-10-08T01:44:56;9.20;;;2.60;;
55800;SDS011;41730;51.960;20.158;2023-10-08T01:47:28;6.40;;;2.90;;
55800;SDS011;41730;51.960;20.158;2023-10-08T01:50:00;5.40;;;2.70;;
55800;SDS011;41730;51.960;20.158;2023-10-08T01:52:33;8.40;;;2.90;;
55800;SDS011;41730;51.960;20.158;2023-10-08T01:55:09;5.30;;;2.60;;
55800;SDS011;41730;51.960;20.158;2023-10-08T01:57:45;7.00;;;3.20;;
55800;SDS011;41730;51.960;20.158;2023-10-08T02:00:17;5.60;;;3.20;;
55800;SDS011;41730;51.960;20.158;2023-10-08T02:02:51;9.00;;;3.10;;
55800;SDS011;41730;51.960;20.158;2023-10-08T02:05:23;9.20;;;3.30;;
55800;SDS011;41730;51.960;20.158;2023-10-08T02:07:56;9.80;;;3.40;;
55800;SDS011;41730;51.960;20.158;2023-10-08T02:10:27;6.90;;;3.20;;
55800;SDS011;41730;51.960;20.158;2023-10-08T02:12:59;8.10;;;3.40;;
55800;SDS011;41730;51.960;20.158;2023-10-08T02:15:32;6.50;;;3.20;;
55800;SDS011;41730;51.960;20.158;2023-10-08T02:18:03;8.00;;;3.30;;
55800;SDS011;41730;51.960;20.158;2023-10-08T02:20:37;8.50;;;3.30;;
55800;SDS011;41730;51.960;20.158;2023-10-08T02:23:10;7.40;;;3.90;;
55800;SDS011;41730;51.960;20.158;2023-10-08T02:25:41;9.00;;;3.60;;
55800;SDS011;41730;51.960;20.158;2023-10-08T02:28:13;7.10;;;3.60;;
55800;SDS011;41730;51.960;20.158;2023-10-08T02:30:48;10.00;;;3.60;;
55800;SDS011;41730;51.960;20.158;2023-10-08T02:33:20;11.20;;;4.20;;
55800;SDS011;41730;51.960;20.158;2023-10-08T02:35:52;9.30;;;4.00;;
55800;SDS011;41730;51.960;20.158;2023-10-08T02:38:23;9.60;;;4.20;;
55800;SDS011;41730;51.960;20.158;2023-10-08T02:40:57;11.10;;;4.70;;
55800;SDS011;41730;51.960;20.158;2023-10-08T02:43:28;9.30;;;4.90;;
55800;SDS011;41730;51.960;20.158;2023-10-08T02:46:02;9.80;;;4.60;;
55800;SDS011;41730;51.960;20.158;2023-10-08T02:48:35;10.60;;;5.00;;
55800;SDS011;41730;51.960;20.158;2023-10-08T02:51:07;15.80;;;5.10;;
55800;SDS011;41730;51.960;20.158;2023-10-08T02:53:43;12.00;;;5.30;;
55800;SDS011;41730;51.960;20.158;2023-10-08T02:56:15;12.90;;;5.00;;
55800;SDS011;41730;51.960;20.158;2023-10-08T02:58:47;13.10;;;5.30;;
55800;SDS011;41730;51.960;20.158;2023-10-08T03:01:19;13.30;;;5.30;;
55800;SDS011;41730;51.960;20.158;2023-10-08T03:03:51;10.50;;;4.80;;
55800;SDS011;41730;51.960;20.158;2023-10-08T03:06:32;10.10;;;5.20;;
55800;SDS011;41730;51.960;20.158;2023-10-08T03:09:06;14.40;;;5.10;;
55800;SDS011;41730;51.960;20.158;2023-10-08T03:11:39;13.30;;;5.20;;
55800;SDS011;41730;51.960;20.158;2023-10-08T03:14:16;12.20;;;5.10;;
55800;SDS011;41730;51.960;20.158;2023-10-08T03:16:51;13.60;;;5.00;;
55800;SDS011;41730;51.960;20.158;2023-10-08T03:19:35;13.10;;;5.30;;
55800;SDS011;41730;51.960;20.158;2023-10-08T03:22:12;12.50;;;5.50;;
55800;SDS011;41730;51.960;20.158;2023-10-08T03:24:47;9.60;;;4.90;;
55800;SDS011;41730;51.960;20.158;2023-10-08T03:27:20;11.90;;;5.50;;
55800;SDS011;41730;51.960;20.158;2023-10-08T03:29:57;11.40;;;5.00;;
55800;SDS011;41730;51.960;20.158;2023-10-08T03:32:32;15.70;;;5.90;;
55800;SDS011;41730;51.960;20.158;2023-10-08T03:35:05;8.60;;;5.00;;
55800;SDS011;41730;51.960;20.158;2023-10-08T03:37:39;13.30;;;5.70;;
55800;SDS011;41730;51.960;20.158;2023-10-08T03:40:15;14.70;;;6.40;;
55800;SDS011;41730;51.960;20.158;2023-10-08T03:45:51;14.80;;;5.90;;
55800;SDS011;41730;51.960;20.158;2023-10-08T03:48:27;14.10;;;6.20;;
55800;SDS011;41730;51.960;20.158;2023-10-08T03:51:05;13.70;;;5.70;;
55800;SDS011;41730;51.960;20.158;2023-10-08T03:53:40;11.40;;;5.00;;
55800;SDS011;41730;51.960;20.158;2023-10-08T03:56:26;12.00;;;5.60;;
55800;SDS011;41730;51.960;20.158;2023-10-08T03:59:00;11.40;;;5.70;;
55800;SDS011;41730;51.960;20.158;2023-10-08T04:01:42;12.20;;;5.50;;
55800;SDS011;41730;51.960;20.158;2023-10-08T04:04:17;11.40;;;5.50;;
55800;SDS011;41730;51.960;20.158;2023-10-08T04:06:50;11.30;;;5.10;;
55800;SDS011;41730;51.960;20.158;2023-10-08T04:09:24;10.30;;;5.50;;
55800;SDS011;41730;51.960;20.158;2023-10-08T04:11:59;14.70;;;5.80;;
55800;SDS011;41730;51.960;20.158;2023-10-08T04:14:39;13.80;;;5.70;;
55800;SDS011;41730;51.960;20.158;2023-10-08T04:17:10;10.40;;;5.30;;
55800;SDS011;41730;51.960;20.158;2023-10-08T04:19:51;13.40;;;5.20;;
55800;SDS011;41730;51.960;20.158;2023-10-08T04:22:26;13.50;;;5.30;;
55800;SDS011;41730;51.960;20.158;2023-10-08T04:24:58;12.40;;;5.70;;
55800;SDS011;41730;51.960;20.158;2023-10-08T04:27:35;13.80;;;5.70;;
55800;SDS011;41730;51.960;20.158;2023-10-08T04:30:09;12.80;;;5.80;;
55800;SDS011;41730;51.960;20.158;2023-10-08T04:32:43;12.00;;;4.70;;
55800;SDS011;41730;51.960;20.158;2023-10-08T04:35:16;9.40;;;4.50;;
55800;SDS011;41730;51.960;20.158;2023-10-08T04:37:53;10.50;;;4.60;;
55800;SDS011;41730;51.960;20.158;2023-10-08T04:40:25;11.60;;;4.40;;
55800;SDS011;41730;51.960;20.158;2023-10-08T04:43:03;11.40;;;4.30;;
55800;SDS011;41730;51.960;20.158;2023-10-08T04:45:38;10.40;;;3.60;;
55800;SDS011;41730;51.960;20.158;2023-10-08T04:48:11;9.30;;;4.30;;
55800;SDS011;41730;51.960;20.158;2023-10-08T04:50:49;9.10;;;4.10;;
55800;SDS011;41730;51.960;20.158;2023-10-08T04:53:27;10.10;;;3.90;;
55800;SDS011;41730;51.960;20.158;2023-10-08T04:56:06;8.30;;;3.80;;
55800;SDS011;41730;51.960;20.158;2023-10-08T04:58:45;7.50;;;3.30;;
55800;SDS011;41730;51.960;20.158;2023-10-08T05:01:18;7.90;;;3.10;;
55800;SDS011;41730;51.960;20.158;2023-10-08T05:03:56;10.00;;;3.00;;
55800;SDS011;41730;51.960;20.158;2023-10-08T05:06:53;11.60;;;2.80;;
55800;SDS011;41730;51.960;20.158;2023-10-08T05:09:44;9.20;;;2.70;;
55800;SDS011;41730;51.960;20.158;2023-10-08T05:12:20;6.60;;;2.50;;
55800;SDS011;41730;51.960;20.158;2023-10-08T05:15:03;9.30;;;2.40;;
55800;SDS011;41730;51.960;20.158;2023-10-08T05:18:02;5.20;;;2.10;;
55800;SDS011;41730;51.960;20.158;2023-10-08T05:20:52;6.70;;;2.10;;
55800;SDS011;41730;51.960;20.158;2023-10-08T05:23:43;5.50;;;2.30;;
55800;SDS011;41730;51.960;20.158;2023-10-08T05:26:40;5.80;;;2.20;;
55800;SDS011;41730;51.960;20.158;2023-10-08T05:29:17;5.90;;;1.80;;
55800;SDS011;41730;51.960;20.158;2023-10-08T05:32:19;5.50;;;1.80;;
55800;SDS011;41730;51.960;20.158;2023-10-08T05:35:14;3.30;;;1.40;;
55800;SDS011;41730;51.960;20.158;2023-10-08T05:38:17;4.20;;;1.30;;
55800;SDS011;41730;51.960;20.158;2023-10-08T05:41:06;2.80;;;0.80;;
55800;SDS011;41730;51.960;20.158;2023-10-08T05:43:56;2.80;;;1.00;;
55800;SDS011;41730;51.960;20.158;2023-10-08T05:46:45;3.30;;;1.30;;
55800;SDS011;41730;51.960;20.158;2023-10-08T05:49:35;3.60;;;1.20;;
55800;SDS011;41730;51.960;20.158;2023-10-08T05:52:22;3.50;;;1.20;;
55800;SDS011;41730;51.960;20.158;2023-10-08T05:55:09;3.60;;;1.20;;
55800;SDS011;41730;51.960;20.158;2023-10-08T05:57:54;4.40;;;1.10;;
55800;SDS011;41730;51.960;20.158;2023-10-08T06:00:53;4.10;;;0.90;;
55800;SDS011;41730;51.960;20.158;2023-10-08T06:03:54;3.30;;;1.00;;
55800;SDS011;41730;51.960;20.158;2023-10-08T06:06:49;7.30;;;1.40;;
55800;SDS011;41730;51.960;20.158;2023-10-08T06:09:40;3.10;;;1.10;;
55800;SDS011;41730;51.960;20.158;2023-10-08T06:12:29;3.50;;;1.20;;
55800;SDS011;41730;51.960;20.158;2023-10-08T06:15:13;2.70;;;0.90;;
55800;SDS011;41730;51.960;20.158;2023-10-08T06:18:04;1.80;;;1.10;;
55800;SDS011;41730;51.960;20.158;2023-10-08T06:20:36;1.90;;;0.60;;
55800;SDS011;41730;51.960;20.158;2023-10-08T06:23:12;2.10;;;0.70;;
55800;SDS011;41730;51.960;20.158;2023-10-08T06:25:47;2.50;;;0.80;;
55800;SDS011;41730;51.960;20.158;2023-10-08T06:28:25;2.10;;;0.70;;
55800;SDS011;41730;51.960;20.158;2023-10-08T06:30:57;2.30;;;0.70;;
55800;SDS011;41730;51.960;20.158;2023-10-08T06:33:30;2.10;;;0.60;;
55800;SDS011;41730;51.960;20.158;2023-10-08T06:36:02;1.40;;;0.60;;
55800;SDS011;41730;51.960;20.158;2023-10-08T06:38:42;1.60;;;0.60;;
55800;SDS011;41730;51.960;20.158;2023-10-08T06:41:17;1.60;;;0.60;;
55800;SDS011;41730;51.960;20.158;2023-10-08T06:44:13;3.60;;;0.70;;
55800;SDS011;41730;51.960;20.158;2023-10-08T06:46:45;1.50;;;0.70;;
55800;SDS011;41730;51.960;20.158;2023-10-08T06:49:21;1.90;;;0.40;;
55800;SDS011;41730;51.960;20.158;2023-10-08T06:51:53;2.00;;;0.80;;
55800;SDS011;41730;51.960;20.158;2023-10-08T06:54:25;2.10;;;0.60;;
55800;SDS011;41730;51.960;20.158;2023-10-08T06:57:02;2.10;;;0.80;;
55800;SDS011;41730;51.960;20.158;2023-10-08T06:59:42;3.10;;;0.80;;
55800;SDS011;41730;51.960;20.158;2023-10-08T07:02:14;1.70;;;0.80;;
55800;SDS011;41730;51.960;20.158;2023-10-08T07:04:46;1.30;;;0.40;;
55800;SDS011;41730;51.960;20.158;2023-10-08T07:07:19;3.10;;;0.90;;
55800;SDS011;41730;51.960;20.158;2023-10-08T07:09:51;1.90;;;0.70;;
55800;SDS011;41730;51.960;20.158;2023-10-08T07:12:24;2.80;;;0.60;;
55800;SDS011;41730;51.960;20.158;2023-10-08T07:14:56;1.30;;;0.60;;
55800;SDS011;41730;51.960;20.158;2023-10-08T07:17:39;2.10;;;0.70;;
55800;SDS011;41730;51.960;20.158;2023-10-08T07:20:12;2.70;;;0.90;;
55800;SDS011;41730;51.960;20.158;2023-10-08T07:22:51;2.40;;;0.80;;
55800;SDS011;41730;51.960;20.158;2023-10-08T07:25:23;2.70;;;0.70;;
55800;SDS011;41730;51.960;20.158;2023-10-08T07:28:05;1.80;;;0.70;;
55800;SDS011;41730;51.960;20.158;2023-10-08T07:30:40;3.50;;;0.70;;
55800;SDS011;41730;51.960;20.158;2023-10-08T07:33:13;3.10;;;0.70;;
55800;SDS011;41730;51.960;20.158;2023-10-08T07:35:47;1.60;;;0.60;;
55800;SDS011;41730;51.960;20.158;2023-10-08T07:38:32;2.00;;;0.80;;
55800;SDS011;41730;51.960;20.158;2023-10-08T07:41:04;2.00;;;0.50;;
55800;SDS011;41730;51.960;20.158;2023-10-08T07:43:37;2.90;;;0.60;;
55800;SDS011;41730;51.960;20.158;2023-10-08T07:46:10;1.50;;;0.50;;
55800;SDS011;41730;51.960;20.158;2023-10-08T07:48:43;1.80;;;0.60;;
55800;SDS011;41730;51.960;20.158;2023-10-08T07:51:15;1.70;;;0.60;;
55800;SDS011;41730;51.960;20.158;2023-10-08T07:53:50;1.50;;;0.60;;
55800;SDS011;41730;51.960;20.158;2023-10-08T07:56:24;2.20;;;0.70;;
55800;SDS011;41730;51.960;20.158;2023-10-08T07:58:58;2.30;;;0.60;;
55800;SDS011;41730;51.960;20.158;2023-10-08T08:01:36;1.80;;;0.70;;
55800;SDS011;41730;51.960;20.158;2023-10-08T08:04:09;4.40;;;0.80;;
55800;SDS011;41730;51.960;20.158;2023-10-08T08:06:51;1.40;;;0.60;;
55800;SDS011;41730;51.960;20.158;2023-10-08T08:09:23;1.40;;;0.50;;
55800;SDS011;41730;51.960;20.158;2023-10-08T08:11:54;2.00;;;0.60;;
55800;SDS011;41730;51.960;20.158;2023-10-08T08:14:26;2.50;;;0.60;;
55800;SDS011;41730;51.960;20.158;2023-10-08T08:16:58;1.10;;;0.50;;
55800;SDS011;41730;51.960;20.158;2023-10-08T08:19:42;3.70;;;1.20;;
55800;SDS011;41730;51.960;20.158;2023-10-08T08:22:15;2.90;;;0.80;;
55800;SDS011;41730;51.960;20.158;2023-10-08T08:24:51;2.50;;;0.70;;
55800;SDS011;41730;51.960;20.158;2023-10-08T08:27:31;1.40;;;0.50;;
55800;SDS011;41730;51.960;20.158;2023-10-08T08:30:08;1.90;;;0.50;;
55800;SDS011;41730;51.960;20.158;2023-10-08T08:32:46;1.90;;;0.60;;
55800;SDS011;41730;51.960;20.158;2023-10-08T08:35:21;1.80;;;0.50;;
55800;SDS011;41730;51.960;20.158;2023-10-08T08:37:53;1.20;;;0.50;;
55800;SDS011;41730;51.960;20.158;2023-10-08T08:40:24;1.80;;;0.70;;
55800;SDS011;41730;51.960;20.158;2023-10-08T08:42:56;3.10;;;0.70;;
55800;SDS011;41730;51.960;20.158;2023-10-08T08:45:33;1.80;;;0.60;;
55800;SDS011;41730;51.960;20.158;2023-10-08T08:48:08;1.40;;;0.60;;
55800;SDS011;41730;51.960;20.158;2023-10-08T08:50:42;1.60;;;0.50;;
55800;SDS011;41730;51.960;20.158;2023-10-08T08:53:16;3.00;;;0.50;;
55800;SDS011;41730;51.960;20.158;2023-10-08T08:55:49;1.90;;;0.40;;
55800;SDS011;41730;51.960;20.158;2023-10-08T09:00:55;2.10;;;0.70;;
55800;SDS011;41730;51.960;20.158;2023-10-08T09:03:27;1.40;;;0.60;;
55800;SDS011;41730;51.960;20.158;2023-10-08T09:06:00;1.80;;;0.60;;
55800;SDS011;41730;51.960;20.158;2023-10-08T09:08:35;1.80;;;0.50;;
55800;SDS011;41730;51.960;20.158;2023-10-08T09:11:13;2.20;;;0.40;;
55800;SDS011;41730;51.960;20.158;2023-10-08T09:13:46;2.00;;;0.70;;
55800;SDS011;41730;51.960;20.158;2023-10-08T09:16:17;1.90;;;0.80;;
55800;SDS011;41730;51.960;20.158;2023-10-08T09:18:51;2.00;;;0.60;;
55800;SDS011;41730;51.960;20.158;2023-10-08T09:21:23;1.90;;;0.70;;
55800;SDS011;41730;51.960;20.158;2023-10-08T09:23:55;3.20;;;0.80;;
55800;SDS011;41730;51.960;20.158;2023-10-08T09:26:27;1.50;;;0.80;;
55800;SDS011;41730;51.960;20.158;2023-10-08T09:28:59;2.40;;;0.60;;
55800;SDS011;41730;51.960;20.158;2023-10-08T09:31:31;1.10;;;0.50;;
55800;SDS011;41730;51.960;20.158;2023-10-08T09:34:06;2.80;;;0.60;;
55800;SDS011;41730;51.960;20.158;2023-10-08T09:36:39;3.40;;;1.20;;
55800;SDS011;41730;51.960;20.158;2023-10-08T09:39:13;1.50;;;0.80;;
55800;SDS011;41730;51.960;20.158;2023-10-08T09:41:51;1.80;;;0.70;;
55800;SDS011;41730;51.960;20.158;2023-10-08T09:44:25;1.80;;;0.60;;
55800;SDS011;41730;51.960;20.158;2023-10-08T09:46:59;2.10;;;0.50;;
55800;SDS011;41730;51.960;20.158;2023-10-08T09:49:36;1.30;;;0.50;;
55800;SDS011;41730;51.960;20.158;2023-10-08T09:52:11;2.10;;;0.80;;
55800;SDS011;41730;51.960;20.158;2023-10-08T09:54:48;1.70;;;0.60;;
55800;SDS011;41730;51.960;20.158;2023-10-08T09:57:25;1.60;;;0.70;;
55800;SDS011;41730;51.960;20.158;2023-10-08T09:59:57;1.90;;;0.70;;
55800;SDS011;41730;51.960;20.158;2023-10-08T10:02:29;1.10;;;0.50;;
55800;SDS011;41730;51.960;20.158;2023-10-08T10:05:02;1.50;;;0.70;;
55800;SDS011;41730;51.960;20.158;2023-10-08T10:07:35;1.30;;;0.50;;
55800;SDS011;41730;51.960;20.158;2023-10-08T10:13:00;2.30;;;0.80;;
55800;SDS011;41730;51.960;20.158;2023-10-08T10:15:37;2.50;;;0.70;;
55800;SDS011;41730;51.960;20.158;2023-10-08T10:18:14;3.40;;;0.80;;
55800;SDS011;41730;51.960;20.158;2023-10-08T10:20:58;2.10;;;0.80;;
55800;SDS011;41730;51.960;20.158;2023-10-08T10:23:51;1.70;;;0.60;;
55800;SDS011;41730;51.960;20.158;2023-10-08T10:26:28;1.30;;;0.60;;
55800;SDS011;41730;51.960;20.158;2023-10-08T10:31:55;1.50;;;0.60;;
55800;SDS011;41730;51.960;20.158;2023-10-08T10:34:27;1.40;;;0.50;;
55800;SDS011;41730;51.960;20.158;2023-10-08T10:37:03;1.00;;;0.50;;
55800;SDS011;41730;51.960;20.158;2023-10-08T10:39:41;2.20;;;0.80;;
55800;SDS011;41730;51.960;20.158;2023-10-08T10:42:14;1.80;;;0.60;;
55800;SDS011;41730;51.960;20.158;2023-10-08T10:44:50;1.20;;;0.40;;
55800;SDS011;41730;51.960;20.158;2023-10-08T10:47:24;1.70;;;0.70;;
55800;SDS011;41730;51.960;20.158;2023-10-08T10:49:56;1.80;;;0.60;;
55800;SDS011;41730;51.960;20.158;2023-10-08T10:52:55;2.00;;;0.80;;
55800;SDS011;41730;51.960;20.158;2023-10-08T10:55:38;1.80;;;0.80;;
55800;SDS011;41730;51.960;20.158;2023-10-08T10:58:27;1.70;;;0.50;;
55800;SDS011;41730;51.960;20.158;2023-10-08T11:01:07;2.50;;;0.80;;
55800;SDS011;41730;51.960;20.158;2023-10-08T11:03:53;3.40;;;0.50;;
55800;SDS011;41730;51.960;20.158;2023-10-08T11:06:26;1.60;;;0.60;;
55800;SDS011;41730;51.960;20.158;2023-10-08T11:09:01;2.60;;;1.00;;
55800;SDS011;41730;51.960;20.158;2023-10-08T11:11:34;2.20;;;0.70;;
55800;SDS011;41730;51.960;20.158;2023-10-08T11:14:15;5.90;;;0.90;;
55800;SDS011;41730;51.960;20.158;2023-10-08T11:16:51;1.90;;;0.60;;
55800;SDS011;41730;51.960;20.158;2023-10-08T11:19:25;2.60;;;1.20;;
55800;SDS011;41730;51.960;20.158;2023-10-08T11:21:57;2.80;;;1.20;;
55800;SDS011;41730;51.960;20.158;2023-10-08T11:24:30;1.90;;;0.80;;
55800;SDS011;41730;51.960;20.158;2023-10-08T11:27:06;1.10;;;0.70;;
55800;SDS011;41730;51.960;20.158;2023-10-08T11:29:48;1.80;;;0.50;;
55800;SDS011;41730;51.960;20.158;2023-10-08T11:32:27;1.30;;;0.60;;
55800;SDS011;41730;51.960;20.158;2023-10-08T11:35:01;1.20;;;0.50;;
55800;SDS011;41730;51.960;20.158;2023-10-08T11:37:46;2.30;;;0.70;;
55800;SDS011;41730;51.960;20.158;2023-10-08T11:40:23;2.80;;;1.00;;
55800;SDS011;41730;51.960;20.158;2023-10-08T11:42:59;3.60;;;1.20;;
55800;SDS011;41730;51.960;20.158;2023-10-08T11:45:31;3.80;;;1.50;;
55800;SDS011;41730;51.960;20.158;2023-10-08T11:48:07;3.70;;;1.50;;
55800;SDS011;41730;51.960;20.158;2023-10-08T11:50:41;2.00;;;0.70;;
55800;SDS011;41730;51.960;20.158;2023-10-08T11:53:15;3.80;;;0.80;;
55800;SDS011;41730;51.960;20.158;2023-10-08T11:55:50;2.40;;;0.90;;
55800;SDS011;41730;51.960;20.158;2023-10-08T11:58:25;2.10;;;0.70;;
55800;SDS011;41730;51.960;20.158;2023-10-08T12:01:06;0.80;;;0.30;;
55800;SDS011;41730;51.960;20.158;2023-10-08T12:03:44;3.00;;;0.50;;
55800;SDS011;41730;51.960;20.158;2023-10-08T12:06:18;1.80;;;0.70;;
55800;SDS011;41730;51.960;20.158;2023-10-08T12:08:52;3.50;;;0.60;;
55800;SDS011;41730;51.960;20.158;2023-10-08T12:11:27;4.20;;;1.50;;
55800;SDS011;41730;51.960;20.158;2023-10-08T12:14:01;1.10;;;0.50;;
55800;SDS011;41730;51.960;20.158;2023-10-08T12:16:34;1.20;;;0.50;;
55800;SDS011;41730;51.960;20.158;2023-10-08T12:19:11;1.20;;;0.50;;
55800;SDS011;41730;51.960;20.158;2023-10-08T12:21:49;2.80;;;0.70;;
55800;SDS011;41730;51.960;20.158;2023-10-08T12:24:22;2.60;;;0.70;;
55800;SDS011;41730;51.960;20.158;2023-10-08T12:26:56;2.30;;;0.90;;
55800;SDS011;41730;51.960;20.158;2023-10-08T12:29:28;2.20;;;0.90;;
55800;SDS011;41730;51.960;20.158;2023-10-08T12:32:01;1.50;;;0.60;;
55800;SDS011;41730;51.960;20.158;2023-10-08T12:34:37;2.90;;;0.80;;
55800;SDS011;41730;51.960;20.158;2023-10-08T12:37:11;2.10;;;0.80;;
55800;SDS011;41730;51.960;20.158;2023-10-08T12:39:43;1.30;;;0.60;;
55800;SDS011;41730;51.960;20.158;2023-10-08T12:42:28;1.80;;;0.70;;
55800;SDS011;41730;51.960;20.158;2023-10-08T12:45:01;1.70;;;0.70;;
55800;SDS011;41730;51.960;20.158;2023-10-08T12:47:40;2.40;;;0.90;;
55800;SDS011;41730;51.960;20.158;2023-10-08T12:50:13;4.10;;;0.90;;
55800;SDS011;41730;51.960;20.158;2023-10-08T12:52:46;1.40;;;0.50;;
55800;SDS011;41730;51.960;20.158;2023-10-08T12:55:21;1.80;;;0.90;;
55800;SDS011;41730;51.960;20.158;2023-10-08T12:57:54;1.70;;;0.70;;
55800;SDS011;41730;51.960;20.158;2023-10-08T13:00:35;1.70;;;0.80;;
55800;SDS011;41730;51.960;20.158;2023-10-08T13:03:10;1.70;;;0.70;;
55800;SDS011;41730;51.960;20.158;2023-10-08T13:05:53;1.50;;;0.60;;
55800;SDS011;41730;51.960;20.158;2023-10-08T13:08:32;2.20;;;0.70;;
55800;SDS011;41730;51.960;20.158;2023-10-08T13:11:07;3.10;;;0.80;;
55800;SDS011;41730;51.960;20.158;2023-10-08T13:13:42;2.40;;;0.70;;
55800;SDS011;41730;51.960;20.158;2023-10-08T13:16:16;2.00;;;0.70;;
55800;SDS011;41730;51.960;20.158;2023-10-08T13:18:51;3.20;;;0.90;;
55800;SDS011;41730;51.960;20.158;2023-10-08T13:21:27;2.60;;;0.90;;
55800;SDS011;41730;51.960;20.158;2023-10-08T13:24:01;2.00;;;0.80;;
55800;SDS011;41730;51.960;20.158;2023-10-08T13:26:38;2.20;;;0.60;;
55800;SDS011;41730;51.960;20.158;2023-10-08T13:29:16;1.70;;;0.70;;
55800;SDS011;41730;51.960;20.158;2023-10-08T13:31:51;3.70;;;1.10;;
55800;SDS011;41730;51.960;20.158;2023-10-08T13:34:25;1.80;;;0.70;;
55800;SDS011;41730;51.960;20.158;2023-10-08T13:36:59;2.30;;;0.60;;
55800;SDS011;41730;51.960;20.158;2023-10-08T13:39:31;3.80;;;0.70;;
55800;SDS011;41730;51.960;20.158;2023-10-08T13:42:05;2.10;;;0.70;;
55800;SDS011;41730;51.960;20.158;2023-10-08T13:44:45;2.50;;;0.70;;
55800;SDS011;41730;51.960;20.158;2023-10-08T13:47:23;3.30;;;0.60;;
55800;SDS011;41730;51.960;20.158;2023-10-08T13:50:05;2.20;;;0.90;;
55800;SDS011;41730;51.960;20.158;2023-10-08T13:52:41;2.00;;;0.80;;
55800;SDS011;41730;51.960;20.158;2023-10-08T13:55:13;2.30;;;0.80;;
55800;SDS011;41730;51.960;20.158;2023-10-08T13:57:48;2.30;;;0.90;;
55800;SDS011;41730;51.960;20.158;2023-10-08T14:00:23;2.60;;;0.90;;
55800;SDS011;41730;51.960;20.158;2023-10-08T14:02:57;3.80;;;1.30;;
55800;SDS011;41730;51.960;20.158;2023-10-08T14:05:37;3.00;;;1.40;;
55800;SDS011;41730;51.960;20.158;2023-10-08T14:08:11;2.20;;;1.00;;
55800;SDS011;41730;51.960;20.158;2023-10-08T14:10:45;2.20;;;1.10;;
55800;SDS011;41730;51.960;20.158;2023-10-08T14:13:18;2.30;;;1.40;;
55800;SDS011;41730;51.960;20.158;2023-10-08T14:15:54;3.20;;;1.50;;
55800;SDS011;41730;51.960;20.158;2023-10-08T14:18:29;4.10;;;1.70;;
55800;SDS011;41730;51.960;20.158;2023-10-08T14:21:10;4.00;;;1.40;;
55800;SDS011;41730;51.960;20.158;2023-10-08T14:23:43;3.10;;;1.20;;
55800;SDS011;41730;51.960;20.158;2023-10-08T14:26:19;2.80;;;1.30;;
55800;SDS011;41730;51.960;20.158;2023-10-08T14:29:04;5.10;;;4.10;;
55800;SDS011;41730;51.960;20.158;2023-10-08T14:31:39;14.60;;;10.70;;
55800;SDS011;41730;51.960;20.158;2023-10-08T14:34:19;3.60;;;2.00;;
55800;SDS011;41730;51.960;20.158;2023-10-08T14:37:19;7.70;;;4.40;;
55800;SDS011;41730;51.960;20.158;2023-10-08T14:40:10;4.90;;;2.50;;
55800;SDS011;41730;51.960;20.158;2023-10-08T14:43:01;6.80;;;4.30;;
55800;SDS011;41730;51.960;20.158;2023-10-08T14:45:34;5.40;;;3.30;;
55800;SDS011;41730;51.960;20.158;2023-10-08T14:48:09;5.70;;;2.20;;
55800;SDS011;41730;51.960;20.158;2023-10-08T14:50:43;3.00;;;1.20;;
55800;SDS011;41730;51.960;20.158;2023-10-08T14:55:50;4.50;;;1.60;;
55800;SDS011;41730;51.960;20.158;2023-10-08T14:58:24;2.70;;;1.30;;
55800;SDS011;41730;51.960;20.158;2023-10-08T15:00:58;2.70;;;1.00;;
55800;SDS011;41730;51.960;20.158;2023-10-08T15:03:32;2.70;;;1.10;;
55800;SDS011;41730;51.960;20.158;2023-10-08T15:06:06;4.00;;;1.10;;
55800;SDS011;41730;51.960;20.158;2023-10-08T15:08:41;5.30;;;1.20;;
55800;SDS011;41730;51.960;20.158;2023-10-08T15:11:16;2.60;;;1.20;;
55800;SDS011;41730;51.960;20.158;2023-10-08T15:13:49;2.80;;;1.20;;
55800;SDS011;41730;51.960;20.158;2023-10-08T15:16:23;2.70;;;1.20;;
55800;SDS011;41730;51.960;20.158;2023-10-08T15:21:28;2.90;;;1.20;;
55800;SDS011;41730;51.960;20.158;2023-10-08T15:24:02;3.10;;;1.50;;
55800;SDS011;41730;51.960;20.158;2023-10-08T15:26:45;3.30;;;1.40;;
55800;SDS011;41730;51.960;20.158;2023-10-08T15:29:22;3.80;;;1.60;;
55800;SDS011;41730;51.960;20.158;2023-10-08T15:31:56;5.70;;;1.80;;
55800;SDS011;41730;51.960;20.158;2023-10-08T15:34:30;3.80;;;1.60;;
55800;SDS011;41730;51.960;20.158;2023-10-08T15:37:09;3.90;;;1.70;;
55800;SDS011;41730;51.960;20.158;2023-10-08T15:39:43;2.90;;;1.50;;
55800;SDS011;41730;51.960;20.158;2023-10-08T15:42:16;4.30;;;1.80;;
55800;SDS011;41730;51.960;20.158;2023-10-08T15:44:52;3.80;;;1.60;;
55800;SDS011;41730;51.960;20.158;2023-10-08T15:47:25;3.30;;;1.60;;
55800;SDS011;41730;51.960;20.158;2023-10-08T15:50:01;3.90;;;1.80;;